createdAt,value
2022-12-16T00:01:08.114Z,-2.70
2022-12-16T00:03:35.972Z,-2.70
2022-12-16T00:06:05.174Z,-2.60
2022-12-16T00:08:33.619Z,-2.60
2022-12-16T00:11:01.220Z,-2.60
2022-12-16T00:13:28.970Z,-2.50
2022-12-16T00:15:55.892Z,-2.50
2022-12-16T00:18:22.671Z,-2.50
2022-12-16T00:20:52.972Z,-2.50
2022-12-16T00:23:22.399Z,-2.40
2022-12-16T00:25:49.331Z,-2.40
2022-12-16T00:28:17.583Z,-2.30
2022-12-16T00:30:45.356Z,-2.30
2022-12-16T00:33:13.057Z,-2.20
2022-12-16T00:35:44.518Z,-2.20
2022-12-16T00:38:13.009Z,-2.20
2022-12-16T00:40:39.921Z,-2.20
2022-12-16T00:43:06.664Z,-2.20
2022-12-16T00:45:33.457Z,-2.30
2022-12-16T00:48:00.181Z,-2.30
2022-12-16T00:50:27.019Z,-2.30
2022-12-16T00:52:54.031Z,-2.40
2022-12-16T00:55:21.679Z,-2.40
2022-12-16T00:57:48.493Z,-2.40
2022-12-16T01:00:16.298Z,-2.30
2022-12-16T01:02:45.150Z,-2.40
2022-12-16T01:05:13.285Z,-2.40
2022-12-16T01:07:40.267Z,-2.40
2022-12-16T01:10:07.969Z,-2.50
2022-12-16T01:12:36.149Z,-2.50
2022-12-16T01:15:03.735Z,-2.50
2022-12-16T01:17:30.423Z,-2.60
2022-12-16T01:19:57.147Z,-2.60
2022-12-16T01:22:23.858Z,-2.60
2022-12-16T01:24:50.597Z,-2.60
2022-12-16T01:27:17.614Z,-2.60
2022-12-16T01:29:44.610Z,-2.60
2022-12-16T01:32:14.719Z,-2.70
2022-12-16T01:34:42.489Z,-2.70
2022-12-16T01:37:14.415Z,-2.70
2022-12-16T01:39:41.099Z,-2.70
2022-12-16T01:42:16.056Z,-2.80
2022-12-16T01:44:43.956Z,-2.80
2022-12-16T01:47:16.477Z,-2.80
2022-12-16T01:49:48.947Z,-2.80
2022-12-16T01:52:22.119Z,-2.80
2022-12-16T01:54:57.835Z,-2.80
2022-12-16T01:57:32.963Z,-2.80
2022-12-16T02:00:01.268Z,-2.80
2022-12-16T02:02:28.094Z,-2.80
2022-12-16T02:05:13.550Z,-2.80
2022-12-16T02:07:40.247Z,-2.90
2022-12-16T02:10:07.573Z,-2.90
2022-12-16T02:13:12.892Z,-2.90
2022-12-16T02:16:07.564Z,-3.00
2022-12-16T02:18:48.670Z,-3.00
2022-12-16T02:21:40.291Z,-3.00
2022-12-16T02:24:45.428Z,-3.00
2022-12-16T02:27:34.205Z,-3.00
2022-12-16T02:30:08.840Z,-3.00
2022-12-16T02:32:57.478Z,-3.00
2022-12-16T02:35:33.761Z,-3.00
2022-12-16T02:38:20.742Z,-3.00
2022-12-16T02:41:03.869Z,-3.00
2022-12-16T02:43:36.426Z,-3.00
2022-12-16T02:46:04.430Z,-2.90
2022-12-16T02:48:31.101Z,-2.90
2022-12-16T02:50:57.796Z,-2.90
2022-12-16T02:53:24.520Z,-2.90
2022-12-16T02:56:13.055Z,-2.90
2022-12-16T02:58:45.896Z,-3.00
2022-12-16T03:01:36.341Z,-3.00
2022-12-16T03:04:12.293Z,-3.00
2022-12-16T03:06:41.579Z,-3.00
2022-12-16T03:09:11.338Z,-2.70
2022-12-16T03:11:40.387Z,-3.00
2022-12-16T03:14:07.501Z,-3.00
2022-12-16T03:16:34.827Z,-3.00
2022-12-16T03:19:04.118Z,-2.80
2022-12-16T03:21:34.809Z,-2.90
2022-12-16T03:24:03.885Z,-2.90
2022-12-16T03:26:41.066Z,-2.30
2022-12-16T03:29:32.865Z,-2.90
2022-12-16T03:32:06.803Z,-2.80
2022-12-16T03:34:47.878Z,-2.80
2022-12-16T03:37:14.929Z,-2.70
2022-12-16T03:39:45.093Z,-2.70
2022-12-16T03:42:13.610Z,-2.10
2022-12-16T03:44:40.314Z,-2.80
2022-12-16T03:47:07.092Z,-2.80
2022-12-16T03:49:33.821Z,-2.80
2022-12-16T03:52:00.899Z,-2.80
2022-12-16T03:54:27.610Z,-2.80
2022-12-16T03:56:54.393Z,-2.80
2022-12-16T03:59:21.065Z,-2.80
2022-12-16T04:01:48.061Z,-2.80
2022-12-16T04:04:14.828Z,-2.80
2022-12-16T04:06:41.515Z,-2.60
2022-12-16T04:09:08.781Z,-2.80
2022-12-16T04:11:54.140Z,-2.80
2022-12-16T04:14:53.389Z,-2.80
2022-12-16T04:17:39.190Z,-2.90
2022-12-16T04:20:24.935Z,-2.60
2022-12-16T04:23:10.170Z,-2.70
2022-12-16T04:25:37.187Z,-2.70
2022-12-16T04:28:03.966Z,-2.60
2022-12-16T04:30:34.632Z,-2.60
2022-12-16T04:33:22.790Z,-2.60
2022-12-16T04:36:08.249Z,-2.50
2022-12-16T04:38:53.382Z,-2.50
2022-12-16T04:41:38.926Z,-2.50
2022-12-16T04:44:24.507Z,-2.50
2022-12-16T04:47:09.802Z,-2.50
2022-12-16T04:49:55.143Z,-2.50
2022-12-16T04:52:40.422Z,-2.50
2022-12-16T04:55:26.595Z,-2.50
2022-12-16T04:58:17.536Z,-2.50
2022-12-16T05:01:03.966Z,-2.50
2022-12-16T05:03:49.430Z,-2.50
2022-12-16T05:06:34.952Z,-2.50
2022-12-16T05:09:20.005Z,-2.50
2022-12-16T05:12:05.369Z,-2.20
2022-12-16T05:14:50.618Z,-2.40
2022-12-16T05:17:36.166Z,-2.50
2022-12-16T05:20:21.761Z,-2.50
2022-12-16T05:23:06.842Z,-2.60
2022-12-16T05:25:52.169Z,-2.60
2022-12-16T05:28:37.518Z,-2.60
2022-12-16T05:31:23.285Z,-2.70
2022-12-16T05:34:08.595Z,-2.70
2022-12-16T05:36:53.798Z,-2.60
2022-12-16T05:39:39.384Z,-2.70
2022-12-16T05:42:24.941Z,-2.70
2022-12-16T05:45:30.156Z,-2.60
2022-12-16T05:48:15.786Z,-2.70
2022-12-16T05:51:01.024Z,-2.60
2022-12-16T05:53:46.306Z,-2.70
2022-12-16T05:56:31.608Z,-2.90
2022-12-16T05:59:17.447Z,-2.90
2022-12-16T06:02:02.893Z,-2.70
2022-12-16T06:04:48.171Z,-2.60
2022-12-16T06:07:33.700Z,-2.90
2022-12-16T06:10:19.312Z,-2.90
2022-12-16T06:13:05.939Z,-2.80
2022-12-16T06:15:51.494Z,-2.90
2022-12-16T06:18:36.797Z,-2.20
2022-12-16T06:21:22.784Z,-2.80
2022-12-16T06:24:08.280Z,-2.80
2022-12-16T06:26:53.779Z,-2.10
2022-12-16T06:29:39.169Z,-2.80
2022-12-16T06:32:24.309Z,-2.70
2022-12-16T06:35:09.430Z,-2.80
2022-12-16T06:37:54.769Z,-2.80
2022-12-16T06:40:40.288Z,-2.80
2022-12-16T06:43:25.912Z,-2.40
2022-12-16T06:46:11.291Z,-2.90
2022-12-16T06:48:56.769Z,-2.90
2022-12-16T06:51:42.083Z,-2.60
2022-12-16T06:54:27.557Z,-2.90
2022-12-16T06:57:12.937Z,-2.90
2022-12-16T06:59:58.013Z,-3.00
2022-12-16T07:02:43.457Z,-3.00
2022-12-16T07:05:28.725Z,-3.10
2022-12-16T07:08:13.902Z,-2.70
2022-12-16T07:11:15.313Z,-3.10
2022-12-16T07:14:01.962Z,-3.20
2022-12-16T07:16:47.597Z,-2.70
2022-12-16T07:19:32.830Z,-3.20
2022-12-16T07:22:18.380Z,-3.10
2022-12-16T07:25:03.656Z,-3.30
2022-12-16T07:27:48.892Z,-2.90
2022-12-16T07:30:34.092Z,-3.20
2022-12-16T07:33:19.533Z,-3.40
2022-12-16T07:36:04.781Z,-3.50
2022-12-16T07:38:50.217Z,-3.50
2022-12-16T07:41:35.582Z,-3.60
2022-12-16T07:44:20.910Z,-3.70
2022-12-16T07:47:06.477Z,-3.70
2022-12-16T07:49:51.696Z,-3.70
2022-12-16T07:52:40.484Z,-3.80
2022-12-16T07:55:25.498Z,-3.80
2022-12-16T07:58:10.823Z,-3.70
2022-12-16T08:00:56.030Z,-3.70
2022-12-16T08:03:41.634Z,-3.60
2022-12-16T08:06:27.136Z,-3.40
2022-12-16T08:09:12.376Z,-3.50
2022-12-16T08:11:57.744Z,-3.50
2022-12-16T08:14:42.958Z,-3.40
2022-12-16T08:17:28.358Z,-3.40
2022-12-16T08:20:13.609Z,-3.30
2022-12-16T08:22:59.565Z,-3.30
2022-12-16T08:25:44.945Z,-3.20
2022-12-16T08:28:30.165Z,-3.10
2022-12-16T08:31:15.562Z,-3.10
2022-12-16T08:34:00.850Z,-3.10
2022-12-16T08:36:46.082Z,-3.00
2022-12-16T08:39:31.766Z,-2.90
2022-12-16T08:42:17.214Z,-2.90
2022-12-16T08:45:02.691Z,-2.80
2022-12-16T08:47:47.841Z,-2.80
2022-12-16T08:50:33.059Z,-2.70
2022-12-16T08:53:18.340Z,-2.70
2022-12-16T08:56:03.628Z,-2.60
2022-12-16T08:58:49.071Z,-2.60
2022-12-16T09:01:34.774Z,-2.50
2022-12-16T09:04:20.171Z,-2.40
2022-12-16T09:07:05.586Z,-2.30
2022-12-16T09:09:51.074Z,-2.20
2022-12-16T09:12:36.531Z,-2.20
2022-12-16T09:15:21.859Z,-2.10
2022-12-16T09:18:15.167Z,-2.10
2022-12-16T09:21:00.540Z,-2.10
2022-12-16T09:23:46.058Z,-2.00
2022-12-16T09:26:31.496Z,-2.00
2022-12-16T09:29:16.886Z,-1.90
2022-12-16T09:32:02.446Z,-1.80
2022-12-16T09:34:47.612Z,-1.70
2022-12-16T09:37:32.929Z,-1.70
2022-12-16T09:40:18.373Z,-1.60
2022-12-16T09:43:04.014Z,-1.60
2022-12-16T09:46:02.911Z,-1.50
2022-12-16T09:49:07.298Z,-1.50
2022-12-16T09:51:53.521Z,-1.40
2022-12-16T09:54:39.496Z,-1.40
2022-12-16T09:57:26.093Z,-1.30
2022-12-16T10:00:19.565Z,-1.30
2022-12-16T10:03:09.240Z,-1.30
2022-12-16T10:06:07.540Z,-1.20
2022-12-16T10:08:58.561Z,-1.20
2022-12-16T10:12:14.347Z,-1.20
2022-12-16T10:15:09.166Z,-1.10
2022-12-16T10:17:55.416Z,-1.10
2022-12-16T10:20:57.686Z,-1.10
2022-12-16T10:24:13.390Z,-1.00
2022-12-16T10:27:23.220Z,-1.00
2022-12-16T10:30:08.511Z,-1.00
2022-12-16T10:33:02.596Z,-1.00
2022-12-16T10:36:08.719Z,-1.00
2022-12-16T10:39:03.763Z,-0.90
2022-12-16T10:41:53.193Z,-0.90
2022-12-16T10:44:43.103Z,-0.90
2022-12-16T10:47:29.884Z,-0.90
2022-12-16T10:50:15.402Z,-1.00
2022-12-16T10:53:16.728Z,-1.00
2022-12-16T10:56:14.114Z,-0.90
2022-12-16T10:59:09.657Z,-0.90
2022-12-16T11:01:55.386Z,-1.00
2022-12-16T11:04:47.654Z,-0.90
2022-12-16T11:08:01.961Z,-0.90
2022-12-16T11:11:02.153Z,-0.90
2022-12-16T11:13:53.054Z,-0.90
2022-12-16T11:16:38.462Z,-0.90
2022-12-16T11:19:24.158Z,-0.90
2022-12-16T11:22:09.542Z,-0.90
2022-12-16T11:24:54.983Z,-0.90
2022-12-16T11:27:43.705Z,-0.80
2022-12-16T11:30:32.141Z,-0.80
2022-12-16T11:33:19.613Z,-0.80
2022-12-16T11:36:10.446Z,-0.80
2022-12-16T11:39:00.264Z,-0.90
2022-12-16T11:41:52.280Z,-0.90
2022-12-16T11:44:42.303Z,-0.90
2022-12-16T11:48:03.362Z,-1.00
2022-12-16T11:50:51.612Z,-1.00
2022-12-16T11:53:39.919Z,-1.00
2022-12-16T11:56:25.846Z,-1.00
2022-12-16T11:59:14.642Z,-1.00
2022-12-16T12:02:11.037Z,-1.10
2022-12-16T12:04:56.416Z,-1.10
2022-12-16T12:07:49.608Z,-1.20
2022-12-16T12:10:53.230Z,-1.30
2022-12-16T12:13:46.743Z,-1.30
2022-12-16T12:16:36.531Z,-1.20
2022-12-16T12:19:31.868Z,-1.10
2022-12-16T12:22:20.652Z,-1.10
2022-12-16T12:25:22.254Z,-1.10
2022-12-16T12:28:34.200Z,-1.10
2022-12-16T12:31:28.747Z,-1.10
2022-12-16T12:34:19.927Z,-1.10
2022-12-16T12:37:18.811Z,-1.10
2022-12-16T12:40:15.240Z,-1.10
2022-12-16T12:43:09.619Z,-1.10
2022-12-16T12:46:17.229Z,-1.10
2022-12-16T12:49:16.958Z,-1.10
2022-12-16T12:52:27.859Z,-1.10
2022-12-16T12:55:42.332Z,-1.20
2022-12-16T12:58:29.687Z,-1.20
2022-12-16T13:01:16.576Z,-1.30
2022-12-16T13:04:07.518Z,-1.40
2022-12-16T13:06:54.326Z,-1.50
2022-12-16T13:09:48.225Z,-1.50
2022-12-16T13:12:33.684Z,-1.60
2022-12-16T13:15:45.367Z,-1.60
2022-12-16T13:18:32.168Z,-1.60
2022-12-16T13:21:17.934Z,-1.70
2022-12-16T13:24:04.175Z,-1.70
2022-12-16T13:26:52.166Z,-1.70
2022-12-16T13:29:51.360Z,-1.70
2022-12-16T13:32:40.005Z,-1.70
2022-12-16T13:35:28.498Z,-1.70
2022-12-16T13:38:35.866Z,-1.70
2022-12-16T13:41:45.470Z,-1.70
2022-12-16T13:44:31.834Z,-1.70
2022-12-16T13:47:17.112Z,-1.80
2022-12-16T13:50:07.691Z,-1.80
2022-12-16T13:52:59.199Z,-1.80
2022-12-16T13:55:49.484Z,-1.80
2022-12-16T13:58:45.391Z,-1.80
2022-12-16T14:01:32.718Z,-1.90
2022-12-16T14:04:18.676Z,-1.90
2022-12-16T14:07:04.069Z,-1.90
2022-12-16T14:09:57.488Z,-2.00
2022-12-16T14:13:02.837Z,-1.90
2022-12-16T14:16:05.541Z,-2.00
2022-12-16T14:19:23.594Z,-1.90
2022-12-16T14:22:13.585Z,-1.90
2022-12-16T14:24:59.489Z,-1.90
2022-12-16T14:27:44.866Z,-1.90
2022-12-16T14:30:40.002Z,-2.00
2022-12-16T14:33:40.250Z,-2.00
2022-12-16T14:36:39.421Z,-2.00
2022-12-16T14:39:29.479Z,-2.10
2022-12-16T14:42:14.649Z,-2.10
2022-12-16T14:45:02.807Z,-2.10
2022-12-16T14:47:48.738Z,-2.20
2022-12-16T14:50:45.334Z,-2.20
2022-12-16T14:53:42.824Z,-2.30
2022-12-16T14:56:39.955Z,-2.30
2022-12-16T14:59:35.866Z,-2.20
2022-12-16T15:02:57.345Z,-2.20
2022-12-16T15:05:49.502Z,-2.30
2022-12-16T15:08:35.375Z,-2.30
2022-12-16T15:11:22.745Z,-2.40
2022-12-16T15:14:12.416Z,-2.40
2022-12-16T15:16:58.044Z,-2.40
2022-12-16T15:19:43.965Z,-2.40
2022-12-16T15:22:35.836Z,-2.40
2022-12-16T15:25:21.864Z,-2.40
2022-12-16T15:28:14.996Z,-2.40
2022-12-16T15:31:07.356Z,-2.40
2022-12-16T15:33:57.235Z,-2.40
2022-12-16T15:36:47.084Z,-2.40
2022-12-16T15:39:48.796Z,-2.40
2022-12-16T15:42:37.298Z,-2.40
2022-12-16T15:45:23.565Z,-2.00
2022-12-16T15:48:09.848Z,-2.30
2022-12-16T15:51:12.031Z,-2.30
2022-12-16T15:53:58.153Z,-2.40
2022-12-16T15:57:01.452Z,-2.30
2022-12-16T16:00:10.037Z,-2.30
2022-12-16T16:02:55.451Z,-2.30
2022-12-16T16:05:42.830Z,-2.30
2022-12-16T16:08:29.918Z,-2.40
2022-12-16T16:11:15.326Z,-2.30
2022-12-16T16:14:08.373Z,-2.40
2022-12-16T16:16:57.848Z,-2.40
2022-12-16T16:19:44.255Z,-2.30
2022-12-16T16:22:31.419Z,-2.40
2022-12-16T16:25:16.734Z,-2.40
2022-12-16T16:28:02.418Z,-2.40
2022-12-16T16:30:47.683Z,-2.40
2022-12-16T16:33:33.358Z,-2.50
2022-12-16T16:36:19.049Z,-2.50
2022-12-16T16:39:04.628Z,-2.50
2022-12-16T16:41:50.032Z,-2.00
2022-12-16T16:44:35.312Z,-2.60
2022-12-16T16:47:20.790Z,-2.70
2022-12-16T16:50:06.681Z,-2.70
2022-12-16T16:52:51.945Z,-2.80
2022-12-16T16:55:42.341Z,-2.80
2022-12-16T16:58:47.315Z,-2.70
2022-12-16T17:01:35.056Z,-2.80
2022-12-16T17:04:20.838Z,-2.80
2022-12-16T17:07:06.437Z,-2.80
2022-12-16T17:09:52.138Z,-2.90
2022-12-16T17:12:43.079Z,-2.90
2022-12-16T17:15:38.377Z,-2.90
2022-12-16T17:18:24.513Z,-2.40
2022-12-16T17:21:10.689Z,-3.00
2022-12-16T17:23:56.337Z,-3.00
2022-12-16T17:26:42.177Z,-3.00
2022-12-16T17:29:36.402Z,-3.00
2022-12-16T17:32:21.750Z,-3.00
2022-12-16T17:35:07.153Z,-3.00
2022-12-16T17:37:52.611Z,-3.10
2022-12-16T17:40:55.042Z,-3.10
2022-12-16T17:43:57.082Z,-3.10
2022-12-16T17:46:42.703Z,-3.10
2022-12-16T17:49:28.295Z,-3.10
2022-12-16T17:52:13.862Z,-3.10
2022-12-16T17:54:59.501Z,-3.20
2022-12-16T17:57:44.860Z,-3.20
2022-12-16T18:00:30.997Z,-2.70
2022-12-16T18:03:16.533Z,-3.20
2022-12-16T18:06:02.089Z,-3.20
2022-12-16T18:08:47.553Z,-3.30
2022-12-16T18:11:38.414Z,-3.30
2022-12-16T18:14:23.917Z,-3.30
2022-12-16T18:17:09.052Z,-3.30
2022-12-16T18:19:54.200Z,-3.40
2022-12-16T18:22:39.387Z,-3.40
2022-12-16T18:25:24.828Z,-3.40
2022-12-16T18:28:10.037Z,-3.40
2022-12-16T18:30:55.742Z,-3.40
2022-12-16T18:33:40.973Z,-3.40
2022-12-16T18:36:26.215Z,-3.40
2022-12-16T18:39:11.433Z,-3.40
2022-12-16T18:42:01.368Z,-3.40
2022-12-16T18:44:46.917Z,-3.50
2022-12-16T18:47:32.203Z,-3.50
2022-12-16T18:50:20.096Z,-3.40
2022-12-16T18:53:09.630Z,-2.70
2022-12-16T18:55:55.132Z,-3.40
2022-12-16T18:58:56.898Z,-3.40
2022-12-16T19:01:42.415Z,-2.90
2022-12-16T19:04:27.700Z,-3.40
2022-12-16T19:07:13.181Z,-2.70
2022-12-16T19:09:58.681Z,-3.40
2022-12-16T19:12:44.067Z,-3.50
2022-12-16T19:15:29.490Z,-3.40
2022-12-16T19:18:15.246Z,-2.90
2022-12-16T19:21:01.277Z,-3.50
2022-12-16T19:23:46.830Z,-3.50
2022-12-16T19:26:32.347Z,-3.50
2022-12-16T19:29:17.737Z,-3.50
2022-12-16T19:32:03.515Z,-3.50
2022-12-16T19:34:49.035Z,-3.50
2022-12-16T19:37:34.683Z,-3.50
2022-12-16T19:40:20.320Z,-3.50
2022-12-16T19:43:05.963Z,-3.50
2022-12-16T19:45:51.388Z,-3.50
2022-12-16T19:48:37.193Z,-3.40
2022-12-16T19:51:22.862Z,-3.40
2022-12-16T19:54:08.504Z,-3.30
2022-12-16T19:56:57.979Z,-3.30
2022-12-16T19:59:43.399Z,-3.30
2022-12-16T20:02:30.427Z,-3.30
2022-12-16T20:05:16.196Z,-3.30
2022-12-16T20:08:01.694Z,-3.30
2022-12-16T20:10:47.134Z,-3.30
2022-12-16T20:13:32.907Z,-3.30
2022-12-16T20:16:26.968Z,-3.30
2022-12-16T20:19:13.224Z,-3.30
2022-12-16T20:25:04.788Z,-3.30
2022-12-16T20:27:50.181Z,-3.30
2022-12-16T20:30:35.836Z,-3.30
2022-12-16T20:33:21.306Z,-3.30
2022-12-16T20:36:21.320Z,-3.30
2022-12-16T20:39:07.116Z,-3.40
2022-12-16T20:41:56.157Z,-3.40
2022-12-16T20:44:41.957Z,-3.40
2022-12-16T20:47:27.508Z,-3.40
2022-12-16T20:50:13.157Z,-3.40
2022-12-16T20:52:58.468Z,-3.40
2022-12-16T20:55:43.972Z,-3.40
2022-12-16T20:58:29.476Z,-3.40
2022-12-16T21:01:15.222Z,-3.40
2022-12-16T21:04:00.398Z,-3.40
2022-12-16T21:06:45.883Z,-3.40
2022-12-16T21:09:31.134Z,-3.40
2022-12-16T21:12:16.339Z,-3.40
2022-12-16T21:15:09.081Z,-2.70
2022-12-16T21:17:56.205Z,-3.30
2022-12-16T21:20:41.586Z,-3.30
2022-12-16T21:23:28.046Z,-3.30
2022-12-16T21:26:13.547Z,-3.30
2022-12-16T21:28:59.015Z,-3.30
2022-12-16T21:31:44.642Z,-3.30
2022-12-16T21:34:29.984Z,-3.40
2022-12-16T21:37:15.498Z,-3.50
2022-12-16T21:40:00.932Z,-3.50
2022-12-16T21:42:46.483Z,-3.60
2022-12-16T21:45:32.698Z,-3.70
2022-12-16T21:48:18.022Z,-3.70
2022-12-16T21:51:09.693Z,-3.80
2022-12-16T21:53:56.715Z,-3.80
2022-12-16T21:56:42.075Z,-3.90
2022-12-16T21:59:27.401Z,-3.90
2022-12-16T22:02:13.097Z,-3.90
2022-12-16T22:04:58.357Z,-3.90
2022-12-16T22:07:45.777Z,-3.90
2022-12-16T22:10:31.421Z,-3.90
2022-12-16T22:13:18.426Z,-3.90
2022-12-16T22:16:16.385Z,-3.90
2022-12-16T22:19:02.089Z,-4.00
2022-12-16T22:21:47.863Z,-4.00
2022-12-16T22:24:33.455Z,-4.00
2022-12-16T22:27:18.976Z,-3.80
2022-12-16T22:30:04.227Z,-3.90
2022-12-16T22:33:06.154Z,-3.80
2022-12-16T22:35:52.443Z,-3.80
2022-12-16T22:38:37.824Z,-3.80
2022-12-16T22:41:23.212Z,-3.80
2022-12-16T22:44:08.396Z,-3.70
2022-12-16T22:46:56.209Z,-3.70
2022-12-16T22:49:41.502Z,-3.70
2022-12-16T22:52:26.767Z,-3.70
2022-12-16T22:55:12.063Z,-3.70
2022-12-16T22:57:57.223Z,-3.80
2022-12-16T23:00:42.396Z,-3.90
2022-12-16T23:03:34.482Z,-3.80
2022-12-16T23:06:19.721Z,-3.90
2022-12-16T23:09:04.922Z,-3.80
2022-12-16T23:11:56.425Z,-3.80
2022-12-16T23:15:02.376Z,-3.90
2022-12-16T23:17:47.704Z,-3.90
2022-12-16T23:20:33.370Z,-4.00
2022-12-16T23:23:18.855Z,-4.10
2022-12-16T23:26:17.194Z,-4.10
2022-12-16T23:29:02.749Z,-4.20
2022-12-16T23:31:48.433Z,-4.30
2022-12-16T23:34:34.114Z,-4.40
2022-12-16T23:37:19.614Z,-4.50
2022-12-16T23:40:05.273Z,-4.50
2022-12-16T23:42:50.499Z,-4.60
2022-12-16T23:45:35.961Z,-4.60
2022-12-16T23:48:28.509Z,-4.70
2022-12-16T23:51:14.421Z,-4.70
2022-12-16T23:53:59.971Z,-4.80
2022-12-16T23:56:45.430Z,-4.80
2022-12-16T23:59:30.913Z,-4.80
